^^
Grace C. Lehan Memorial Weather Station Historical Data
Daily Summary for August 30, 2021 Units:  English    Metric   Both
Daily Weekly Monthly Yearly
  High: Low: Average:
Temperature: 87.7 °F 70.8 °F 77.4 °F
Dew Point: 76.3 °F 68.4 °F 72.5 °F
Humidity: 95% 68% 86%
Wind Speed: 2.6mph 0mph 0.2mph
Wind Gust: 10mph - -
Wind- - WSW
Pressure: 30.02 in 29.71 in -
Precipitation: 0.00 in    
 
 
Tabular Data for August 30, 2021
Time Temperature Dew Point Pressure Wind Wind Speed Wind Gust Humidity Rainfall Rate (Hourly) solar
00:00 70.8 °F 68.4 °F 30.01 in Calm   1 mph 92% 0.00 in 0 W/m2
00:09 70.8 °F 68.4 °F 30.02 in Calm     92% 0.00 in 0 W/m2
00:14 70.8 °F 68.6 °F 30.02 in Calm     92.9% 0.00 in 0 W/m2
00:19 70.8 °F 68.7 °F 30.02 in Calm     93% 0.00 in 0 W/m2
00:24 70.8 °F 68.7 °F 30.02 in Calm     93% 0.00 in 0 W/m2
00:29 70.8 °F 68.7 °F 30.02 in Calm     93% 0.00 in 0 W/m2
00:34 70.8 °F 68.7 °F 30.02 in Calm     93% 0.00 in 0 W/m2
00:39 70.8 °F 68.7 °F 30.02 in Calm     93% 0.00 in 0 W/m2
00:44 70.8 °F 68.7 °F 30.02 in Calm     93% 0.00 in 0 W/m2
00:49 70.8 °F 68.7 °F 30.02 in Calm     93% 0.00 in 0 W/m2
00:54 70.8 °F 68.7 °F 30.02 in Calm     93% 0.00 in 0 W/m2
00:59 70.8 °F 68.7 °F 30.01 in Calm     93% 0.00 in 0 W/m2
01:04 70.9 °F 68.8 °F 30.01 in Calm     93% 0.00 in 0 W/m2
01:09 70.9 °F 68.8 °F 30.01 in Calm     93% 0.00 in 0 W/m2
01:14 70.8 °F 68.7 °F 30.01 in Calm     93% 0.00 in 0 W/m2
01:19 70.9 °F 68.8 °F 30.01 in Calm     93% 0.00 in 0 W/m2
01:24 70.9 °F 68.8 °F 30.01 in Calm     93% 0.00 in 0 W/m2
01:29 70.9 °F 68.8 °F 30.01 in Calm     93% 0.00 in 0 W/m2
01:34 70.9 °F 68.8 °F 30.01 in Calm     93% 0.00 in 0 W/m2
01:39 70.9 °F 68.8 °F 30.01 in Calm     93% 0.00 in 0 W/m2
01:44 70.9 °F 68.8 °F 30.01 in Calm     93% 0.00 in 0 W/m2
01:49 70.9 °F 68.8 °F 30.01 in Calm     93% 0.00 in 0 W/m2
01:54 70.9 °F 68.8 °F 30.00 in Calm     93% 0.00 in 0 W/m2
01:59 70.9 °F 68.8 °F 30.00 in Calm     93% 0.00 in 0 W/m2
02:04 70.9 °F 68.8 °F 30.00 in Calm     93% 0.00 in 0 W/m2
02:09 71 °F 69.1 °F 30.00 in Calm     93.8% 0.00 in 0 W/m2
02:14 71 °F 69.2 °F 30.00 in Calm     94% 0.00 in 0 W/m2
02:19 71 °F 69.2 °F 30.00 in Calm     94% 0.00 in 0 W/m2
02:24 71 °F 69.2 °F 29.99 in Calm     94% 0.00 in 0 W/m2
02:29 71 °F 69.2 °F 29.99 in Calm     94% 0.00 in 0 W/m2
02:34 71 °F 69.2 °F 29.99 in Calm     94% 0.00 in 0 W/m2
02:39 71 °F 69.2 °F 29.99 in Calm   1 mph 94% 0.00 in 0 W/m2
02:44 71 °F 69.2 °F 29.98 in Calm   1 mph 94% 0.00 in 0 W/m2
02:49 71 °F 69.2 °F 29.98 in Calm   1 mph 94% 0.00 in 0 W/m2
02:54 71 °F 69.2 °F 29.98 in Calm   1 mph 94% 0.00 in 0 W/m2
02:59 71 °F 69.2 °F 29.98 in Calm   1 mph 94% 0.00 in 0 W/m2
03:04 71 °F 69.2 °F 29.98 in Calm   1 mph 94% 0.00 in 0 W/m2
03:09 71 °F 69.2 °F 29.97 in Calm   1 mph 94% 0.00 in 0 W/m2
03:14 71 °F 69.2 °F 29.97 in Calm   1 mph 94% 0.00 in 0 W/m2
03:19 71 °F 69.2 °F 29.97 in Calm   1 mph 94% 0.00 in 0 W/m2
03:24 71 °F 69.2 °F 29.97 in Calm   1 mph 94% 0.00 in 0 W/m2
03:29 71 °F 69.2 °F 29.96 in Calm   1 mph 94% 0.00 in 0 W/m2
03:34 71 °F 69.2 °F 29.96 in Calm   1 mph 94% 0.00 in 0 W/m2
03:39 71 °F 69.2 °F 29.95 in Calm   1 mph 94% 0.00 in 0 W/m2
03:44 71 °F 69.2 °F 29.95 in Calm   1 mph 94% 0.00 in 0 W/m2
03:49 71.1 °F 69.3 °F 29.95 in Calm   2 mph 94% 0.00 in 0 W/m2
03:54 71.1 °F 69.3 °F 29.95 in WSW 0.1 mph 2 mph 94% 0.00 in 0 W/m2
03:59 71.1 °F 69.3 °F 29.95 in WSW 0.1 mph 2 mph 94% 0.00 in 0 W/m2
04:00 71.1 °F 69.3 °F 29.95 in Calm   2 mph 94% 0.00 in 0 W/m2
04:09 71.1 °F 69.3 °F 29.95 in Calm     94% 0.00 in 0 W/m2
04:14 71.2 °F 69.4 °F 29.94 in Calm     94% 0.00 in 0 W/m2
04:19 71.2 °F 69.4 °F 29.94 in Calm     94% 0.00 in 0 W/m2
04:24 71.2 °F 69.4 °F 29.93 in Calm     94% 0.00 in 0 W/m2
04:29 71.2 °F 69.4 °F 29.93 in Calm     94% 0.00 in 0 W/m2
04:34 71.2 °F 69.4 °F 29.93 in Calm   1 mph 94% 0.00 in 0 W/m2
04:39 71.3 °F 69.5 °F 29.93 in Calm   1 mph 94% 0.00 in 0 W/m2
04:44 71.3 °F 69.5 °F 29.93 in Calm   1 mph 94% 0.00 in 0 W/m2
04:49 71.3 °F 69.5 °F 29.93 in Calm   1 mph 94% 0.00 in 0 W/m2
04:54 71.3 °F 69.8 °F 29.93 in Calm   1 mph 94.8% 0.00 in 0 W/m2
04:59 71.4 °F 69.9 °F 29.93 in Calm   1 mph 95% 0.00 in 0 W/m2
05:04 71.4 °F 69.9 °F 29.93 in WSW 0.1 mph 2 mph 95% 0.00 in 0 W/m2
05:09 71.5 °F 70 °F 29.93 in Calm   2 mph 95% 0.00 in 0 W/m2
05:14 71.5 °F 70 °F 29.93 in Calm   2 mph 95% 0.00 in 0 W/m2
05:19 71.6 °F 70.1 °F 29.93 in Calm   2 mph 95% 0.00 in 0 W/m2
05:24 71.6 °F 70.1 °F 29.93 in Calm   2 mph 95% 0.00 in 0 W/m2
05:29 71.7 °F 70.2 °F 29.93 in Calm   2 mph 95% 0.00 in 0 W/m2
05:34 71.7 °F 70.2 °F 29.93 in Calm   2 mph 95% 0.00 in 0 W/m2
05:39 71.8 °F 70.3 °F 29.93 in Calm   1 mph 95% 0.00 in 0 W/m2
05:44 71.8 °F 70.3 °F 29.93 in Calm   1 mph 95% 0.00 in 0 W/m2
05:49 71.9 °F 70.4 °F 29.93 in Calm   1 mph 95% 0.00 in 0 W/m2
05:54 71.9 °F 70.4 °F 29.93 in Calm   1 mph 95% 0.00 in 0 W/m2
05:59 71.9 °F 70.4 °F 29.93 in Calm   2 mph 95% 0.00 in 0 W/m2
06:04 72 °F 70.5 °F 29.93 in Calm   2 mph 95% 0.00 in 0 W/m2
06:09 72 °F 70.5 °F 29.92 in Calm     95% 0.00 in 0 W/m2
06:14 72 °F 70.5 °F 29.92 in Calm     95% 0.00 in 0 W/m2
06:19 72.1 °F 70.6 °F 29.92 in Calm     95% 0.00 in 0 W/m2
06:24 72.1 °F 70.6 °F 29.92 in Calm     95% 0.00 in 0 W/m2
06:29 72.1 °F 70.6 °F 29.92 in Calm     95% 0.00 in 5 W/m2
06:34 72.2 °F 70.7 °F 29.92 in Calm     95% 0.00 in 7 W/m2
06:39 72.2 °F 70.7 °F 29.92 in Calm     95% 0.00 in 7 W/m2
06:44 72.2 °F 70.7 °F 29.92 in Calm     95% 0.00 in 7 W/m2
06:49 72.2 °F 70.7 °F 29.92 in Calm   1 mph 95% 0.00 in 9 W/m2
06:54 72.3 °F 70.8 °F 29.92 in Calm   1 mph 95% 0.00 in 11 W/m2
06:59 72.3 °F 70.8 °F 29.91 in Calm   1 mph 95% 0.00 in 14 W/m2
07:04 72.3 °F 70.8 °F 29.91 in Calm   1 mph 95% 0.00 in 16 W/m2
07:09 72.4 °F 70.9 °F 29.91 in Calm     95% 0.00 in 14 W/m2
07:14 72.4 °F 70.9 °F 29.91 in Calm     95% 0.00 in 12 W/m2
07:19 72.4 °F 70.9 °F 29.91 in Calm     95% 0.00 in 19 W/m2
07:24 72.5 °F 71 °F 29.91 in WSW 0.1 mph 2 mph 95% 0.00 in 37 W/m2
07:29 72.5 °F 71 °F 29.91 in Calm   2 mph 95% 0.00 in 39 W/m2
07:34 72.6 °F 71.1 °F 29.91 in Calm   2 mph 95% 0.00 in 42 W/m2
07:39 72.6 °F 71.1 °F 29.91 in Calm     95% 0.00 in 49 W/m2
07:44 72.7 °F 71.2 °F 29.91 in Calm     95% 0.00 in 44 W/m2
07:49 72.8 °F 71.3 °F 29.91 in Calm   1 mph 95% 0.00 in 42 W/m2
07:54 72.9 °F 71.4 °F 29.90 in Calm   1 mph 95% 0.00 in 46 W/m2
07:59 73 °F 71.5 °F 29.90 in Calm   1 mph 95% 0.00 in 35 W/m2
08:09 73.2 °F 71.5 °F 29.90 in Calm     94.4% 0.00 in 32 W/m2
08:14 73.3 °F 71.5 °F 29.90 in Calm     94% 0.00 in 26 W/m2
08:19 73.4 °F 71.5 °F 29.90 in Calm     94% 0.00 in 33 W/m2
08:24 73.4 °F 71.6 °F 29.90 in Calm     94% 0.00 in 35 W/m2
08:29 73.5 °F 71.7 °F 29.89 in Calm     94% 0.00 in 47 W/m2
08:34 73.6 °F 71.7 °F 29.89 in Calm     94% 0.00 in 91 W/m2
08:38 73.7 °F 71.8 °F 29.89 in Calm     94% 0.00 in 90 W/m2
08:44 73.8 °F 72 °F 29.88 in Calm     94% 0.00 in 116 W/m2
08:49 74 °F 72.2 °F 29.88 in Calm   2 mph 94% 0.00 in 132 W/m2
08:54 74.2 °F 72.3 °F 29.88 in Calm   2 mph 93.8% 0.00 in 121 W/m2
08:59 74.4 °F 72.3 °F 29.88 in Calm   2 mph 93% 0.00 in 169 W/m2
09:04 74.7 °F 72.6 °F 29.88 in Calm   2 mph 93% 0.00 in 165 W/m2
09:09 75.1 °F 73 °F 29.88 in WSW 0.5 mph 4 mph 93% 0.00 in 195 W/m2
09:14 75.6 °F 73.1 °F 29.87 in Calm   4 mph 92.2% 0.00 in 250 W/m2
09:19 76 °F 73.3 °F 29.87 in WSW 0.1 mph 4 mph 91.5% 0.00 in 371 W/m2
09:24 76.5 °F 73.6 °F 29.87 in Calm   4 mph 90.7% 0.00 in 371 W/m2
09:29 77 °F 73.7 °F 29.87 in WSW 0.1 mph 4 mph 89.4% 0.00 in 302 W/m2
09:34 77.4 °F 73.4 °F 29.86 in WSW 0.4 mph 5 mph 87.3% 0.00 in 323 W/m2
09:39 77.8 °F 73.5 °F 29.86 in WSW 0.2 mph 4 mph 86.6% 0.00 in 304 W/m2
09:44 78.2 °F 73.6 °F 29.86 in WSW 0.8 mph 10 mph 85.8% 0.00 in 248 W/m2
09:49 78.4 °F 73.4 °F 29.87 in Calm   10 mph 84.7% 0.00 in 195 W/m2
09:54 78.5 °F 73.5 °F 29.86 in SW 0.2 mph 10 mph 84.7% 0.00 in 209 W/m2
09:59 78.8 °F 73.8 °F 29.87 in SW 0.4 mph 10 mph 84.8% 0.00 in 276 W/m2
10:04 79.3 °F 73.9 °F 29.87 in SW 0.6 mph 10 mph 83.7% 0.00 in 264 W/m2
10:09 79.7 °F 74.3 °F 29.87 in SSW 0.2 mph 9 mph 83.4% 0.00 in 294 W/m2
10:14 80 °F 74.1 °F 29.87 in SW 0.6 mph 9 mph 82.2% 0.00 in 125 W/m2
10:19 80 °F 73.9 °F 29.87 in WSW 0.1 mph 9 mph 81.7% 0.00 in 121 W/m2
10:24 79.8 °F 73.7 °F 29.87 in WSW 0.9 mph 9 mph 81.7% 0.00 in 206 W/m2
10:29 79.7 °F 73.8 °F 29.87 in Calm   9 mph 82.4% 0.00 in 225 W/m2
10:34 79.7 °F 74.1 °F 29.87 in Calm   9 mph 83% 0.00 in 253 W/m2
10:39 79.7 °F 74.1 °F 29.86 in Calm   2 mph 82.9% 0.00 in 253 W/m2
10:44 79.9 °F 74 °F 29.86 in Calm   2 mph 82.1% 0.00 in 768 W/m2
10:49 80.8 °F 75.3 °F 29.86 in SW 0.4 mph 3 mph 83.4% 0.00 in 874 W/m2
10:54 82 °F 75.6 °F 29.86 in WSW 1.2 mph 6 mph 81% 0.00 in 874 W/m2
10:59 82.6 °F 74.9 °F 29.86 in WSW 1 mph 6 mph 77.5% 0.00 in 239 W/m2
11:04 82.5 °F 74.3 °F 29.86 in SW 0.9 mph 9 mph 76.3% 0.00 in 258 W/m2
11:09 82.3 °F 74.1 °F 29.86 in SW 0.6 mph 9 mph 76.5% 0.00 in 218 W/m2
11:14 82 °F 74.1 °F 29.86 in WSW 1 mph 9 mph 77% 0.00 in 218 W/m2
11:19 81.8 °F 74.1 °F 29.86 in SW 0.1 mph 9 mph 77.6% 0.00 in 248 W/m2
11:24 81.6 °F 74.4 °F 29.85 in SW 0.1 mph 9 mph 78.7% 0.00 in 199 W/m2
11:29 81.6 °F 74.4 °F 29.85 in SW 0.5 mph 9 mph 78.8% 0.00 in 898 W/m2
11:34 81.9 °F 74.9 °F 29.85 in SW 0.5 mph 9 mph 79.3% 0.00 in 898 W/m2
11:39 82.7 °F 75.9 °F 29.85 in WSW 0.3 mph 7 mph 79.8% 0.00 in 803 W/m2
11:44 83.5 °F 75.1 °F 29.84 in SSW 0.4 mph 7 mph 75.8% 0.00 in 780 W/m2
11:49 84 °F 75.2 °F 29.84 in SW 0.4 mph 7 mph 75% 0.00 in 605 W/m2
11:54 84.2 °F 74.9 °F 29.84 in SW 0.1 mph 7 mph 73.6% 0.00 in 292 W/m2
11:59 84.2 °F 74.4 °F 29.83 in Calm   7 mph 72.5% 0.00 in 292 W/m2
12:00 84 °F 74.4 °F 29.83 in Calm   7 mph 73% 0.00 in 292 W/m2
12:09 83.8 °F 74.7 °F 29.83 in SW 0.1 mph 2 mph 74.2% 0.00 in 364 W/m2
12:14 83.8 °F 74.7 °F 29.83 in WSW 0.4 mph 5 mph 74.3% 0.00 in 260 W/m2
12:19 83.8 °F 74.8 °F 29.83 in Calm   5 mph 74.3% 0.00 in 315 W/m2
12:24 83.8 °F 74.9 °F 29.83 in WSW 0.4 mph 5 mph 74.6% 0.00 in 311 W/m2
12:29 83.9 °F 75.2 °F 29.83 in WSW 0.1 mph 5 mph 75.4% 0.00 in 415 W/m2
12:34 84 °F 75.5 °F 29.83 in WSW 0.4 mph 5 mph 75.7% 0.00 in 334 W/m2
12:39 84.2 °F 75.4 °F 29.83 in WSW 0.3 mph 4 mph 75% 0.00 in 236 W/m2
12:44 84.3 °F 75.2 °F 29.83 in WSW 0.3 mph 4 mph 74.3% 0.00 in 202 W/m2
12:49 84.1 °F 75 °F 29.82 in WSW 0.3 mph 4 mph 74% 0.00 in 176 W/m2
12:54 83.9 °F 74.8 °F 29.82 in Calm   4 mph 74.3% 0.00 in 107 W/m2
12:59 83.7 °F 74.7 °F 29.82 in Calm   4 mph 74.5% 0.00 in 79 W/m2
13:04 83.4 °F 74.7 °F 29.82 in WSW 0.1 mph 4 mph 75% 0.00 in 72 W/m2
13:09 83.1 °F 74.5 °F 29.82 in Calm   2 mph 75.4% 0.00 in 121 W/m2
13:14 82.9 °F 74.8 °F 29.82 in WSW 0.1 mph 2 mph 76.7% 0.00 in 142 W/m2
13:19 82.8 °F 74.9 °F 29.82 in Calm   2 mph 77.2% 0.00 in 149 W/m2
13:24 82.7 °F 74.7 °F 29.81 in Calm   2 mph 77% 0.00 in 116 W/m2
13:29 82.6 °F 74.6 °F 29.81 in Calm   2 mph 77.1% 0.00 in 141 W/m2
14:00 84.4 °F 75.2 °F 29.79 in Calm   6 mph 74% 0.00 in 366 W/m2
14:30 84.9 °F 75.3 °F 29.77 in SW 2 mph 9 mph 73% 0.00 in 315 W/m2
15:00 87.1 °F 75.7 °F 29.76 in SW 1 mph 7 mph 69% 0.00 in 687 W/m2
15:30 87.3 °F 76.3 °F 29.75 in SW 2 mph 10 mph 70% 0.00 in 503 W/m2
16:04 87.7 °F 75.8 °F 29.73 in WSW 2.6 mph 7 mph 68% 0.00 in 63 W/m2
16:09 87.5 °F 75.6 °F 29.73 in WSW 2 mph 7 mph 68% 0.00 in 60 W/m2
16:14 87.2 °F 75.8 °F 29.73 in West 1.1 mph 7 mph 69% 0.00 in 60 W/m2
16:19 87 °F 75.8 °F 29.73 in WNW 1.6 mph 7 mph 69.3% 0.00 in 100 W/m2
16:24 86.8 °F 75.4 °F 29.73 in WNW 0.8 mph 7 mph 69% 0.00 in 91 W/m2
16:29 86.6 °F 75.5 °F 29.73 in WSW 1.2 mph 10 mph 69.8% 0.00 in 105 W/m2
16:34 86.4 °F 75.1 °F 29.73 in SW 0.6 mph 10 mph 69.2% 0.00 in 102 W/m2
16:39 86.2 °F 75 °F 29.73 in WSW 0.4 mph 3 mph 69.3% 0.00 in 125 W/m2
16:44 86 °F 75.1 °F 29.73 in WSW 1.1 mph 5 mph 70% 0.00 in 118 W/m2
16:49 85.9 °F 75 °F 29.73 in WSW 1 mph 5 mph 70.1% 0.00 in 104 W/m2
16:54 85.8 °F 75 °F 29.72 in Calm   5 mph 70.4% 0.00 in 113 W/m2
16:59 85.8 °F 75.3 °F 29.72 in WSW 0.8 mph 5 mph 70.9% 0.00 in 113 W/m2
17:04 85.8 °F 75.4 °F 29.72 in WSW 0.9 mph 5 mph 71.1% 0.00 in 84 W/m2
17:09 85.9 °F 75.4 °F 29.72 in WSW 0.2 mph 4 mph 70.9% 0.00 in 98 W/m2
17:14 86 °F 75.4 °F 29.72 in WSW 0.7 mph 4 mph 70.8% 0.00 in 135 W/m2
17:19 86.1 °F 75.4 °F 29.71 in WSW 0.2 mph 4 mph 70.7% 0.00 in 135 W/m2
17:24 86.2 °F 75.3 °F 29.71 in WSW 0.3 mph 4 mph 70% 0.00 in 95 W/m2
17:29 86.2 °F 75.1 °F 29.71 in WSW 0.7 mph 4 mph 69.5% 0.00 in 76 W/m2
17:34 86.1 °F 75.4 °F 29.71 in WSW 0.6 mph 4 mph 70.3% 0.00 in 76 W/m2
17:39 86 °F 75 °F 29.71 in WSW 0.4 mph 3 mph 70% 0.00 in 47 W/m2
17:44 85.7 °F 75 °F 29.71 in WSW 0.2 mph 3 mph 70.4% 0.00 in 32 W/m2
17:49 85.5 °F 75.2 °F 29.72 in WSW 0.3 mph 3 mph 71.5% 0.00 in 32 W/m2
17:54 85.2 °F 75.3 °F 29.72 in Calm   3 mph 72.3% 0.00 in 28 W/m2
17:59 85 °F 75.5 °F 29.72 in Calm   3 mph 73.3% 0.00 in 28 W/m2
18:04 84.9 °F 75.6 °F 29.72 in Calm   3 mph 73.8% 0.00 in 33 W/m2
18:09 84.7 °F 75.5 °F 29.72 in Calm     74% 0.00 in 33 W/m2
18:14 84.5 °F 75.3 °F 29.72 in Calm   1 mph 74% 0.00 in 32 W/m2
18:19 84.3 °F 75.1 °F 29.71 in WSW 0.4 mph 4 mph 74% 0.00 in 39 W/m2
18:24 84.1 °F 75 °F 29.71 in WSW 0.3 mph 4 mph 74.1% 0.00 in 40 W/m2
18:29 84 °F 74.9 °F 29.71 in Calm   4 mph 74.3% 0.00 in 40 W/m2
18:34 83.9 °F 75.1 °F 29.71 in WSW 0.1 mph 4 mph 75% 0.00 in 40 W/m2
18:39 83.7 °F 75 °F 29.71 in Calm   3 mph 75% 0.00 in 46 W/m2
18:44 83.6 °F 75.2 °F 29.71 in Calm   3 mph 75.8% 0.00 in 44 W/m2
18:49 83.5 °F 75.2 °F 29.71 in Calm   3 mph 76% 0.00 in 40 W/m2
18:54 83.4 °F 75 °F 29.71 in WSW 0.1 mph 3 mph 76% 0.00 in 40 W/m2
18:59 83.2 °F 74.9 °F 29.71 in Calm   3 mph 76.1% 0.00 in 39 W/m2
19:04 83.1 °F 75.1 °F 29.72 in Calm   3 mph 77% 0.00 in 25 W/m2
19:09 82.9 °F 75 °F 29.72 in Calm   1 mph 77% 0.00 in 16 W/m2
19:14 82.8 °F 74.8 °F 29.72 in Calm   1 mph 77% 0.00 in 11 W/m2
19:19 82.7 °F 74.7 °F 29.73 in Calm   1 mph 77% 0.00 in 7 W/m2
19:24 82.5 °F 74.5 °F 29.73 in Calm   1 mph 77% 0.00 in 5 W/m2
19:29 82.3 °F 74.7 °F 29.73 in Calm   1 mph 77.8% 0.00 in 5 W/m2
19:34 82.1 °F 74.6 °F 29.73 in Calm   1 mph 78% 0.00 in 0 W/m2
19:39 81.9 °F 74.4 °F 29.73 in Calm     78% 0.00 in 0 W/m2
19:44 81.8 °F 74.4 °F 29.73 in Calm     78.3% 0.00 in 0 W/m2
19:49 81.6 °F 74.5 °F 29.73 in Calm     79% 0.00 in 0 W/m2
19:54 81.4 °F 74.3 °F 29.73 in Calm     79% 0.00 in 0 W/m2
19:59 81.3 °F 74.2 °F 29.73 in Calm     79.2% 0.00 in 0 W/m2
20:09 81 °F 74.2 °F 29.73 in Calm     80% 0.00 in 0 W/m2
20:14 80.8 °F 74.1 °F 29.74 in Calm     80% 0.00 in 0 W/m2
20:19 80.7 °F 74.1 °F 29.74 in WSW 0.2 mph 2 mph 80.6% 0.00 in 0 W/m2
20:24 80.5 °F 74.1 °F 29.74 in Calm   2 mph 81% 0.00 in 0 W/m2
20:29 80.3 °F 74 °F 29.74 in Calm   2 mph 81.1% 0.00 in 0 W/m2
20:34 80.2 °F 74.2 °F 29.74 in Calm   2 mph 82% 0.00 in 0 W/m2
20:39 80.1 °F 74.1 °F 29.74 in Calm   2 mph 82% 0.00 in 0 W/m2
20:44 79.9 °F 74 °F 29.74 in Calm   2 mph 82% 0.00 in 0 W/m2
20:49 79.8 °F 74.1 °F 29.74 in Calm   2 mph 82.8% 0.00 in 0 W/m2
20:54 79.6 °F 74 °F 29.74 in Calm   2 mph 83% 0.00 in 0 W/m2
20:59 79.4 °F 73.9 °F 29.74 in Calm   2 mph 83.3% 0.00 in 0 W/m2
21:04 79.3 °F 74 °F 29.74 in WSW 0.2 mph 3 mph 84% 0.00 in 0 W/m2
21:09 79.1 °F 73.8 °F 29.74 in West 0.2 mph 5 mph 84% 0.00 in 0 W/m2
21:14 78.9 °F 73.9 °F 29.74 in West 0.1 mph 5 mph 84.6% 0.00 in 0 W/m2
21:19 78.8 °F 74 °F 29.74 in West 0.3 mph 5 mph 85% 0.00 in 0 W/m2
21:24 78.7 °F 73.9 °F 29.74 in Calm   5 mph 85% 0.00 in 0 W/m2
21:29 78.7 °F 74.1 °F 29.74 in Calm   5 mph 85.8% 0.00 in 0 W/m2
21:34 78.6 °F 74.1 °F 29.74 in Calm   5 mph 86% 0.00 in 0 W/m2
21:39 78.5 °F 74 °F 29.74 in Calm     86% 0.00 in 0 W/m2
21:44 78.4 °F 73.9 °F 29.74 in Calm     86% 0.00 in 0 W/m2
21:49 78.3 °F 73.8 °F 29.74 in Calm     86% 0.00 in 0 W/m2
21:54 78.2 °F 73.7 °F 29.75 in Calm     86% 0.00 in 0 W/m2
21:59 78.1 °F 73.7 °F 29.75 in Calm     86.1% 0.00 in 0 W/m2
22:04 78 °F 73.9 °F 29.75 in Calm     87% 0.00 in 0 W/m2
22:09 77.9 °F 73.8 °F 29.75 in Calm     87% 0.00 in 0 W/m2
22:14 77.8 °F 73.6 °F 29.75 in Calm     87% 0.00 in 0 W/m2
22:19 77.7 °F 73.9 °F 29.75 in Calm     87.9% 0.00 in 0 W/m2
22:24 77.6 °F 73.8 °F 29.75 in Calm     88% 0.00 in 0 W/m2
22:29 77.5 °F 73.7 °F 29.74 in Calm     88% 0.00 in 0 W/m2
22:34 77.4 °F 73.6 °F 29.75 in Calm     88% 0.00 in 0 W/m2
22:39 77.3 °F 73.5 °F 29.75 in Calm     88% 0.00 in 0 W/m2
22:44 77.2 °F 73.7 °F 29.74 in Calm     88.9% 0.00 in 0 W/m2
22:49 77.1 °F 73.7 °F 29.74 in Calm     89% 0.00 in 0 W/m2
22:54 77.1 °F 73.6 °F 29.74 in Calm     89% 0.00 in 0 W/m2
22:59 77 °F 73.5 °F 29.74 in Calm     89% 0.00 in 0 W/m2
23:04 77 °F 73.5 °F 29.74 in Calm     89% 0.00 in 0 W/m2
23:09 76.9 °F 73.4 °F 29.74 in Calm     89% 0.00 in 0 W/m2
23:14 76.8 °F 73.5 °F 29.74 in Calm     89.4% 0.00 in 0 W/m2
23:19 76.7 °F 73.2 °F 29.75 in Calm     89.1% 0.00 in 0 W/m2
23:24 76.6 °F 73.4 °F 29.74 in Calm     89.7% 0.00 in 0 W/m2
23:29 76.5 °F 73.4 °F 29.74 in Calm     90% 0.00 in 0 W/m2
23:34 76.4 °F 72.9 °F 29.74 in Calm     89% 0.00 in 0 W/m2
23:39 76.3 °F 72.8 °F 29.74 in Calm     89% 0.00 in 0 W/m2
23:44 76.3 °F 72.8 °F 29.74 in Calm     89% 0.00 in 0 W/m2
23:49 76.2 °F 72.7 °F 29.74 in Calm     89% 0.00 in 0 W/m2
23:54 76.2 °F 72.7 °F 29.74 in Calm     89% 0.00 in 0 W/m2
23:59 76.1 °F 72.6 °F 29.74 in Calm     89% 0.00 in 0 W/m2
Hartford County Weather
Compliments of Weather Underground - 4 mb